Flugplatz Mosenberg

Für EDEM sind keine METAR/TAF Berichte vorhanden.
Es werden die Flugwettermeldungen vom Flugplatz Fritzlar Airport in 11 km Entfernung angezeigt.

Bericht für ETHF

vom 01.12. um 08:32 UTC

Wind 17 kt aus 210°

Sichtweite 3000 m

Sprühregen

Regen

aufgebrochene Bewölkung in 1200 ft

Temperatur 6.0°C

Taupunkt 4.0°C

Luftfeuchtigkeit 87%

Luftdruck 995 hPa

ETHF 010832Z 21017KT 3000 DZRA BKN012 06/04 Q0995 YLO WHT TEMPO YLO

Prognose für ETHF

vom 01.12. um 08:32 UTC

Zwischen 09:00 UTC und 18:00 UTC

Wind 15 kt aus 210° in Böen 25 kt

Sichtweite 10 km oder mehr

keine signifikanten Wettererscheinungen

aufgelockert bewölkt in 1000 ft

aufgebrochene Bewölkung in 1500 ft


Zwischen 09:00 UTC und 18:00 UTC zeitweise

Wind 20 kt aus 220° in Böen 35 kt

Sichtweite 3000 m

Regen

Sprühregen

aufgelockert bewölkt in 500 ft

aufgebrochene Bewölkung in 1000 ft

TAF COR ETHF 010832Z 0109/0118 21015G25KT 9999 NSW SCT010 BKN015 TEMPO 0109/0118 22020G35KT 3000 RADZ SCT005 BKN010
Impressum